createdAt,value
2023-04-23T00:02:15.644Z,74.70
2023-04-23T00:04:50.626Z,74.70
2023-04-23T00:07:20.101Z,74.40
2023-04-23T00:09:47.263Z,74.70
2023-04-23T00:12:14.279Z,74.50
2023-04-23T00:14:41.429Z,74.60
2023-04-23T00:17:08.277Z,74.60
2023-04-23T00:19:34.946Z,74.60
2023-04-23T00:22:01.655Z,74.60
2023-04-23T00:24:28.323Z,74.80
2023-04-23T00:26:55.055Z,74.50
2023-04-23T00:29:21.737Z,74.50
2023-04-23T00:31:48.467Z,74.30
2023-04-23T00:34:15.199Z,74.10
2023-04-23T00:36:41.904Z,74.70
2023-04-23T00:39:10.168Z,74.30
2023-04-23T00:41:36.961Z,74.60
2023-04-23T00:44:03.916Z,74.80
2023-04-23T00:46:30.616Z,74.90
2023-04-23T00:48:58.091Z,75.20
2023-04-23T00:51:25.946Z,74.80
2023-04-23T00:53:52.660Z,75.00
2023-04-23T00:56:19.626Z,75.00
2023-04-23T00:58:46.491Z,74.20
2023-04-23T01:01:13.916Z,74.00
2023-04-23T01:03:42.909Z,74.00
2023-04-23T01:06:09.757Z,74.00
2023-04-23T01:08:36.708Z,74.50
2023-04-23T01:11:03.785Z,74.60
2023-04-23T01:13:30.667Z,74.10
2023-04-23T01:15:57.677Z,74.10
2023-04-23T01:18:24.481Z,74.30
2023-04-23T01:20:51.785Z,74.10
2023-04-23T01:23:19.034Z,74.20
2023-04-23T01:25:46.315Z,74.30
2023-04-23T01:28:13.593Z,74.20
2023-04-23T01:30:43.325Z,74.20
2023-04-23T01:33:11.324Z,74.30
2023-04-23T01:35:38.956Z,74.40
2023-04-23T01:38:09.246Z,74.60
2023-04-23T01:40:36.048Z,74.50
2023-04-23T01:43:03.250Z,74.60
2023-04-23T01:45:31.133Z,74.80
2023-04-23T01:47:59.051Z,74.70
2023-04-23T01:50:26.388Z,74.40
2023-04-23T01:52:53.226Z,74.40
2023-04-23T01:55:20.776Z,74.60
2023-04-23T01:57:47.846Z,74.70
2023-04-23T02:00:15.635Z,74.50
2023-04-23T02:02:44.239Z,74.40
2023-04-23T02:05:16.960Z,74.60
2023-04-23T02:07:44.564Z,74.50
2023-04-23T02:10:11.999Z,74.40
2023-04-23T02:12:39.395Z,74.50
2023-04-23T02:15:07.938Z,74.70
2023-04-23T02:17:35.447Z,74.80
2023-04-23T02:20:02.708Z,74.90
2023-04-23T02:22:29.622Z,74.90
2023-04-23T02:24:56.347Z,75.10
2023-04-23T02:27:23.201Z,75.00
2023-04-23T02:29:49.951Z,75.00
2023-04-23T02:32:16.677Z,74.90
2023-04-23T02:34:43.672Z,74.90
2023-04-23T02:37:10.877Z,75.00
2023-04-23T02:39:39.197Z,74.70
2023-04-23T02:42:06.374Z,74.90
2023-04-23T02:44:33.275Z,74.90
2023-04-23T02:47:00.590Z,75.00
2023-04-23T02:49:27.340Z,75.10
2023-04-23T02:51:54.625Z,75.10
2023-04-23T02:54:21.368Z,75.10
2023-04-23T02:56:48.410Z,75.20
2023-04-23T02:59:15.238Z,75.20
2023-04-23T03:01:42.052Z,75.10
2023-04-23T03:04:10.954Z,75.30
2023-04-23T03:06:37.825Z,75.20
2023-04-23T03:09:04.928Z,75.20
2023-04-23T03:11:31.849Z,75.30
2023-04-23T03:13:58.590Z,75.20
2023-04-23T03:16:28.104Z,75.20
2023-04-23T03:18:55.585Z,75.40
2023-04-23T03:21:22.367Z,75.20
2023-04-23T03:23:49.874Z,75.10
2023-04-23T03:26:17.668Z,75.30
2023-04-23T03:28:44.655Z,75.30
2023-04-23T03:31:11.476Z,75.30
2023-04-23T03:33:38.301Z,75.30
2023-04-23T03:36:05.592Z,75.50
2023-04-23T03:38:33.140Z,75.60
2023-04-23T03:41:01.652Z,75.70
2023-04-23T03:43:28.440Z,75.80
2023-04-23T03:46:15.989Z,75.70
2023-04-23T03:48:42.817Z,75.80
2023-04-23T03:51:16.735Z,75.90
2023-04-23T03:53:46.850Z,76.00
2023-04-23T03:56:38.238Z,76.10
2023-04-23T03:59:26.780Z,76.20
2023-04-23T04:01:56.165Z,76.30
2023-04-23T04:04:25.845Z,76.30
2023-04-23T04:06:52.840Z,76.30
2023-04-23T04:09:19.607Z,76.30
2023-04-23T04:11:46.749Z,76.30
2023-04-23T04:14:14.093Z,76.20
2023-04-23T04:16:40.948Z,76.20
2023-04-23T04:19:07.844Z,76.20
2023-04-23T04:21:34.586Z,76.20
2023-04-23T04:24:01.701Z,76.20
2023-04-23T04:26:29.644Z,76.20
2023-04-23T04:28:58.364Z,76.10
2023-04-23T04:31:28.102Z,76.10
2023-04-23T04:33:55.540Z,76.10
2023-04-23T04:36:25.061Z,76.60
2023-04-23T04:38:51.882Z,76.10
2023-04-23T04:41:19.976Z,76.30
2023-04-23T04:43:46.853Z,76.40
2023-04-23T04:46:13.702Z,76.50
2023-04-23T04:48:40.442Z,76.60
2023-04-23T04:51:07.493Z,76.60
2023-04-23T04:53:36.077Z,76.60
2023-04-23T04:56:03.010Z,76.50
2023-04-23T04:58:29.782Z,76.50
2023-04-23T05:00:56.538Z,76.20
2023-04-23T05:03:23.404Z,76.20
2023-04-23T05:05:50.184Z,76.50
2023-04-23T05:08:17.376Z,76.50
2023-04-23T05:10:44.362Z,76.50
2023-04-23T05:13:11.062Z,76.50
2023-04-23T05:15:37.813Z,76.30
2023-04-23T05:18:07.882Z,76.60
2023-04-23T05:20:35.828Z,77.80
2023-04-23T05:23:02.919Z,78.20
2023-04-23T05:25:32.294Z,78.30
2023-04-23T05:27:58.969Z,78.60
2023-04-23T05:30:25.701Z,78.60
2023-04-23T05:32:52.523Z,78.90
2023-04-23T05:35:19.484Z,79.00
2023-04-23T05:37:46.210Z,79.20
2023-04-23T05:40:13.140Z,79.10
2023-04-23T05:42:39.831Z,79.50
2023-04-23T05:45:08.783Z,79.50
2023-04-23T05:47:36.626Z,79.70
2023-04-23T05:50:03.506Z,79.40
2023-04-23T05:52:35.645Z,79.40
2023-04-23T05:55:02.317Z,79.40
2023-04-23T05:57:29.047Z,79.50
2023-04-23T05:59:55.731Z,79.80
2023-04-23T06:02:24.707Z,79.70
2023-04-23T06:04:52.480Z,79.70
2023-04-23T06:07:19.499Z,79.60
2023-04-23T06:09:46.388Z,79.60
2023-04-23T06:12:13.150Z,79.50
2023-04-23T06:14:40.202Z,79.60
2023-04-23T06:17:07.141Z,79.60
2023-04-23T06:19:36.699Z,80.00
2023-04-23T06:22:03.483Z,79.90
2023-04-23T06:24:30.436Z,79.90
2023-04-23T06:26:57.790Z,80.30
2023-04-23T06:29:25.750Z,80.70
2023-04-23T06:32:10.759Z,80.60
2023-04-23T06:34:44.014Z,80.70
2023-04-23T06:37:16.743Z,81.00
2023-04-23T06:39:43.467Z,81.00
2023-04-23T06:42:10.270Z,80.90
2023-04-23T06:44:49.154Z,81.10
2023-04-23T06:47:15.841Z,81.50
2023-04-23T06:49:42.633Z,81.60
2023-04-23T06:52:09.410Z,81.60
2023-04-23T06:54:36.126Z,81.70
2023-04-23T06:57:02.830Z,81.70
2023-04-23T06:59:29.523Z,81.90
2023-04-23T07:01:57.694Z,81.90
2023-04-23T07:04:24.517Z,81.90
2023-04-23T07:06:51.245Z,82.00
2023-04-23T07:09:17.957Z,82.20
2023-04-23T07:11:44.715Z,81.50
2023-04-23T07:14:11.457Z,80.60
2023-04-23T07:16:38.191Z,80.00
2023-04-23T07:19:04.916Z,80.30
2023-04-23T07:21:33.053Z,79.80
2023-04-23T07:24:00.854Z,79.70
2023-04-23T07:26:27.952Z,79.70
2023-04-23T07:28:54.773Z,79.60
2023-04-23T07:31:22.261Z,79.50
2023-04-23T07:33:49.242Z,79.50
2023-04-23T07:36:16.191Z,79.40
2023-04-23T07:38:43.022Z,79.30
2023-04-23T07:41:09.780Z,79.40
2023-04-23T07:43:36.506Z,80.10
2023-04-23T07:46:03.297Z,80.40
2023-04-23T07:48:29.998Z,80.30
2023-04-23T07:50:57.125Z,80.40
2023-04-23T07:53:23.844Z,80.50
2023-04-23T07:55:50.560Z,80.50
2023-04-23T07:58:17.384Z,80.40
2023-04-23T08:00:44.193Z,80.40
2023-04-23T08:03:11.043Z,80.60
2023-04-23T08:05:39.147Z,80.50
2023-04-23T08:08:05.927Z,80.40
2023-04-23T08:10:32.777Z,80.50
2023-04-23T08:12:59.513Z,80.40
2023-04-23T08:15:26.249Z,80.40
2023-04-23T08:17:53.047Z,80.30
2023-04-23T08:20:20.124Z,80.30
2023-04-23T08:22:46.935Z,80.30
2023-04-23T08:25:13.615Z,80.30
2023-04-23T08:27:40.348Z,80.30
2023-04-23T08:30:08.636Z,80.30
2023-04-23T08:32:35.392Z,80.30
2023-04-23T08:35:02.112Z,80.20
2023-04-23T08:37:31.338Z,80.20
2023-04-23T08:39:58.592Z,80.20
2023-04-23T08:42:52.883Z,80.20
2023-04-23T08:45:20.004Z,80.20
2023-04-23T08:47:46.760Z,80.30
2023-04-23T08:50:18.158Z,80.30
2023-04-23T08:52:50.091Z,80.30
2023-04-23T08:55:18.766Z,80.40
2023-04-23T08:57:46.917Z,80.40
2023-04-23T09:00:15.475Z,80.90
2023-04-23T09:02:44.881Z,80.70
2023-04-23T09:05:12.613Z,80.70
2023-04-23T09:07:40.423Z,80.70
2023-04-23T09:10:09.341Z,80.70
2023-04-23T09:12:36.708Z,80.80
2023-04-23T09:15:10.884Z,80.70
2023-04-23T09:17:43.160Z,80.70
2023-04-23T09:20:10.943Z,80.70
2023-04-23T09:22:47.750Z,80.70
2023-04-23T09:25:19.437Z,80.60
2023-04-23T09:27:47.743Z,80.60
2023-04-23T09:30:15.207Z,80.70
2023-04-23T09:32:43.589Z,80.70
2023-04-23T09:35:15.303Z,80.60
2023-04-23T09:37:43.990Z,80.70
2023-04-23T09:40:13.705Z,80.70
2023-04-23T09:42:40.698Z,80.60
2023-04-23T09:45:11.141Z,80.70
2023-04-23T09:47:48.389Z,80.60
2023-04-23T09:50:15.605Z,80.70
2023-04-23T09:52:42.443Z,80.60
2023-04-23T09:55:09.415Z,80.60
2023-04-23T09:57:46.717Z,80.60
2023-04-23T10:00:20.518Z,80.60
2023-04-23T10:02:51.801Z,80.60
2023-04-23T10:05:24.873Z,80.50
2023-04-23T10:07:56.448Z,80.60
2023-04-23T10:10:24.714Z,80.50
2023-04-23T10:12:55.763Z,80.60
2023-04-23T10:15:26.890Z,80.60
2023-04-23T10:17:55.634Z,80.60
2023-04-23T10:20:23.707Z,80.60
2023-04-23T10:22:53.400Z,80.60
2023-04-23T10:25:21.181Z,80.50
2023-04-23T10:27:54.419Z,80.50
2023-04-23T10:30:22.629Z,80.50
2023-04-23T10:32:50.413Z,80.50
2023-04-23T10:35:17.728Z,80.30
2023-04-23T10:37:46.927Z,80.30
2023-04-23T10:40:16.713Z,80.50
2023-04-23T10:42:45.397Z,80.40
2023-04-23T10:45:24.132Z,80.40
2023-04-23T10:47:57.208Z,80.30
2023-04-23T10:50:25.251Z,80.40
2023-04-23T10:52:56.969Z,80.10
2023-04-23T10:55:29.191Z,80.40
2023-04-23T10:58:07.873Z,80.30
2023-04-23T11:00:41.097Z,80.10
2023-04-23T11:03:31.852Z,80.30
2023-04-23T11:06:03.290Z,80.30
2023-04-23T11:08:33.667Z,80.30
2023-04-23T11:11:02.778Z,80.40
2023-04-23T11:13:30.233Z,80.30
2023-04-23T11:16:16.938Z,80.20
2023-04-23T11:18:56.207Z,80.30
2023-04-23T11:21:23.006Z,80.20
2023-04-23T11:23:49.766Z,80.10
2023-04-23T11:26:19.964Z,80.10
2023-04-23T11:28:48.110Z,80.10
2023-04-23T11:31:15.336Z,80.00
2023-04-23T11:33:42.069Z,80.40
2023-04-23T11:36:09.115Z,80.40
2023-04-23T11:38:35.854Z,80.30
2023-04-23T11:41:05.247Z,80.20
2023-04-23T11:43:31.955Z,80.10
2023-04-23T11:46:01.072Z,80.00
2023-04-23T11:48:27.838Z,80.10
2023-04-23T11:50:54.951Z,80.40
2023-04-23T11:53:23.630Z,80.30
2023-04-23T11:55:51.051Z,80.10
2023-04-23T11:58:19.062Z,80.10
2023-04-23T12:00:46.121Z,79.90
2023-04-23T12:03:14.187Z,80.10
2023-04-23T12:05:43.776Z,80.50
2023-04-23T12:08:18.548Z,80.20
2023-04-23T12:10:55.056Z,80.60
2023-04-23T12:13:28.171Z,79.90
2023-04-23T12:15:57.114Z,79.90
2023-04-23T12:18:37.860Z,79.90
2023-04-23T12:21:08.133Z,79.90
2023-04-23T12:23:36.224Z,79.80
2023-04-23T12:26:03.304Z,79.60
2023-04-23T12:28:30.334Z,79.70
2023-04-23T12:31:03.405Z,79.60
2023-04-23T12:33:30.862Z,79.70
2023-04-23T12:35:58.184Z,79.60
2023-04-23T12:38:29.140Z,79.40
2023-04-23T12:41:00.286Z,79.40
2023-04-23T12:43:27.604Z,79.10
2023-04-23T12:45:57.228Z,79.40
2023-04-23T12:48:23.928Z,79.80
2023-04-23T12:50:50.798Z,79.90
2023-04-23T12:53:18.343Z,79.20
2023-04-23T12:55:45.750Z,79.40
2023-04-23T12:58:12.664Z,78.60
2023-04-23T13:00:39.487Z,79.30
2023-04-23T13:03:06.394Z,79.60
2023-04-23T13:05:33.302Z,79.90
2023-04-23T13:08:00.225Z,79.90
2023-04-23T13:10:27.144Z,79.70
2023-04-23T13:12:53.896Z,80.20
2023-04-23T13:15:20.673Z,79.90
2023-04-23T13:17:47.424Z,79.40
2023-04-23T13:20:14.308Z,80.30
2023-04-23T13:22:41.088Z,79.70
2023-04-23T13:25:08.678Z,80.00
2023-04-23T13:27:35.492Z,79.90
2023-04-23T13:30:02.231Z,79.60
2023-04-23T13:32:32.120Z,80.00
2023-04-23T13:35:01.851Z,80.00
2023-04-23T13:37:31.335Z,79.90
2023-04-23T13:39:58.089Z,80.10
2023-04-23T13:42:24.839Z,79.80
2023-04-23T13:44:51.779Z,78.40
2023-04-23T13:47:18.525Z,79.80
2023-04-23T13:49:45.345Z,79.30
2023-04-23T13:52:12.027Z,80.00
2023-04-23T13:54:39.838Z,79.60
2023-04-23T13:57:06.995Z,79.70
2023-04-23T13:59:33.732Z,79.50
2023-04-23T14:02:00.916Z,79.00
2023-04-23T14:04:27.877Z,79.20
2023-04-23T14:06:54.704Z,79.50
2023-04-23T14:09:22.455Z,79.30
2023-04-23T14:11:49.637Z,79.20
2023-04-23T14:14:16.745Z,79.50
2023-04-23T14:16:43.909Z,79.70
2023-04-23T14:19:10.631Z,79.50
2023-04-23T14:21:37.936Z,79.40
2023-04-23T14:24:22.065Z,79.20
2023-04-23T14:26:50.228Z,79.20
2023-04-23T14:29:40.790Z,79.30
2023-04-23T14:32:07.911Z,79.30
2023-04-23T14:34:37.643Z,79.60
2023-04-23T14:37:04.722Z,79.60
2023-04-23T14:39:31.523Z,79.50
2023-04-23T14:41:58.322Z,79.30
2023-04-23T14:44:26.646Z,79.50
2023-04-23T14:46:53.518Z,79.30
2023-04-23T14:49:23.227Z,79.60
2023-04-23T14:51:54.024Z,79.80
2023-04-23T14:54:21.717Z,79.60
2023-04-23T14:56:48.801Z,78.70
2023-04-23T14:59:15.659Z,79.30
2023-04-23T15:01:42.794Z,79.60
2023-04-23T15:04:12.578Z,79.00
2023-04-23T15:06:40.497Z,79.60
2023-04-23T15:09:07.265Z,79.70
2023-04-23T15:11:34.118Z,79.80
2023-04-23T15:14:36.461Z,79.90
2023-04-23T15:17:03.260Z,79.80
2023-04-23T15:19:31.297Z,79.40
2023-04-23T15:21:58.170Z,79.40
2023-04-23T15:24:25.000Z,78.70
2023-04-23T15:26:53.344Z,79.00
2023-04-23T15:29:20.242Z,79.70
2023-04-23T15:31:46.959Z,79.70
2023-04-23T15:34:13.756Z,79.50
2023-04-23T15:36:40.597Z,79.70
2023-04-23T15:39:08.585Z,79.80
2023-04-23T15:41:39.444Z,80.00
2023-04-23T15:44:10.927Z,80.10
2023-04-23T15:46:37.736Z,79.90
2023-04-23T15:49:05.572Z,79.90
2023-04-23T15:51:33.007Z,80.10
2023-04-23T15:54:02.028Z,80.10
2023-04-23T15:56:29.002Z,80.60
2023-04-23T15:58:55.725Z,82.00
2023-04-23T16:01:23.307Z,82.40
2023-04-23T16:04:08.066Z,82.40
2023-04-23T16:06:36.747Z,82.60
2023-04-23T16:09:06.595Z,82.40
2023-04-23T16:11:34.537Z,82.50
2023-04-23T16:14:02.000Z,82.00
2023-04-23T16:16:30.741Z,81.40
2023-04-23T16:18:57.870Z,81.40
2023-04-23T16:21:24.795Z,81.20
2023-04-23T16:23:51.495Z,81.60
2023-04-23T16:26:18.309Z,81.60
2023-04-23T16:28:51.942Z,81.30
2023-04-23T16:31:27.878Z,80.70
2023-04-23T16:33:54.646Z,80.70
2023-04-23T16:36:21.435Z,81.70
2023-04-23T16:38:49.470Z,80.70
2023-04-23T16:41:18.466Z,80.50
2023-04-23T16:43:45.584Z,80.60
2023-04-23T16:46:12.518Z,81.00
2023-04-23T16:48:39.211Z,81.70
2023-04-23T16:51:05.982Z,81.40
2023-04-23T16:53:32.777Z,81.60
2023-04-23T16:56:00.273Z,81.50
2023-04-23T16:58:26.981Z,82.20
2023-04-23T17:00:53.681Z,82.30
2023-04-23T17:03:20.606Z,82.20
2023-04-23T17:05:50.253Z,81.90
2023-04-23T17:08:17.808Z,82.10
2023-04-23T17:10:44.615Z,81.40
2023-04-23T17:13:11.309Z,81.40
2023-04-23T17:15:38.100Z,81.40
2023-04-23T17:18:04.937Z,81.50
2023-04-23T17:20:35.073Z,81.60
2023-04-23T17:23:04.959Z,81.40
2023-04-23T17:25:31.703Z,81.50
2023-04-23T17:27:58.683Z,81.40
2023-04-23T17:30:25.460Z,81.50
2023-04-23T17:32:52.272Z,81.50
2023-04-23T17:35:19.128Z,81.50
2023-04-23T17:37:45.848Z,81.80
2023-04-23T17:40:12.805Z,81.50
2023-04-23T17:42:39.581Z,82.10
2023-04-23T17:45:06.720Z,82.30
2023-04-23T17:47:33.523Z,82.60
2023-04-23T17:50:00.305Z,82.50
2023-04-23T17:52:27.010Z,82.70
2023-04-23T17:54:54.091Z,83.00
2023-04-23T17:57:20.915Z,83.20
2023-04-23T17:59:47.628Z,83.10
2023-04-23T18:02:14.756Z,83.00
2023-04-23T18:04:41.864Z,82.90
2023-04-23T18:07:08.583Z,83.40
2023-04-23T18:09:35.658Z,83.30
2023-04-23T18:12:03.838Z,83.50
2023-04-23T18:14:30.587Z,84.00
2023-04-23T18:16:57.388Z,84.00
2023-04-23T18:19:24.232Z,83.90
2023-04-23T18:21:50.954Z,84.30
2023-04-23T18:24:18.647Z,83.90
2023-04-23T18:26:45.513Z,84.10
2023-04-23T18:29:12.314Z,84.10
2023-04-23T18:31:39.018Z,83.90
2023-04-23T18:34:10.366Z,84.20
2023-04-23T18:36:38.152Z,83.70
2023-04-23T18:39:07.279Z,84.10
2023-04-23T18:41:34.636Z,84.00
2023-04-23T18:44:02.494Z,83.80
2023-04-23T18:46:31.374Z,83.80
2023-04-23T18:49:09.124Z,83.90
2023-04-23T18:51:44.773Z,84.00
2023-04-23T18:54:15.049Z,84.20
2023-04-23T18:56:41.926Z,84.80
2023-04-23T18:59:08.626Z,84.70
2023-04-23T19:01:35.792Z,84.90
2023-04-23T19:04:03.349Z,84.70
2023-04-23T19:06:31.162Z,84.90
2023-04-23T19:08:58.564Z,84.30
2023-04-23T19:11:27.048Z,84.00
2023-04-23T19:13:53.842Z,83.70
2023-04-23T19:16:20.788Z,83.20
2023-04-23T19:18:47.853Z,82.80
2023-04-23T19:21:14.619Z,81.90
2023-04-23T19:23:41.364Z,81.30
2023-04-23T19:26:08.148Z,81.70
2023-04-23T19:28:34.958Z,81.40
2023-04-23T19:31:03.301Z,81.00
2023-04-23T19:33:30.072Z,80.60
2023-04-23T19:35:57.010Z,80.60
2023-04-23T19:38:23.786Z,81.00
2023-04-23T19:40:51.248Z,81.00
2023-04-23T19:43:18.871Z,81.00
2023-04-23T19:45:46.539Z,80.80
2023-04-23T19:48:13.291Z,81.00
2023-04-23T19:50:40.062Z,81.20
2023-04-23T19:53:06.833Z,81.00
2023-04-23T19:55:33.665Z,80.90
2023-04-23T19:58:00.548Z,81.30
2023-04-23T20:00:30.671Z,81.60
2023-04-23T20:02:58.030Z,81.80
2023-04-23T20:05:25.006Z,81.70
2023-04-23T20:07:52.682Z,81.60
2023-04-23T20:10:19.618Z,81.80
2023-04-23T20:12:46.369Z,81.90
2023-04-23T20:15:13.196Z,81.80
2023-04-23T20:17:40.669Z,82.00
2023-04-23T20:20:09.396Z,81.80
2023-04-23T20:22:36.084Z,81.90
2023-04-23T20:25:05.209Z,81.80
2023-04-23T20:27:32.461Z,82.00
2023-04-23T20:29:59.473Z,82.10
2023-04-23T20:32:26.302Z,82.20
2023-04-23T20:34:53.131Z,82.20
2023-04-23T20:37:21.672Z,82.30
2023-04-23T20:39:49.969Z,82.50
2023-04-23T20:42:17.050Z,82.80
2023-04-23T20:44:45.424Z,82.50
2023-04-23T20:47:12.567Z,82.60
2023-04-23T20:49:40.382Z,82.60
2023-04-23T20:52:07.438Z,82.40
2023-04-23T20:54:34.850Z,82.50
2023-04-23T20:57:02.282Z,82.40
2023-04-23T20:59:29.242Z,82.60
2023-04-23T21:01:56.045Z,82.60
2023-04-23T21:04:23.186Z,82.70
2023-04-23T21:06:51.038Z,82.70
2023-04-23T21:09:17.815Z,82.70
2023-04-23T21:11:44.605Z,82.60
2023-04-23T21:14:11.346Z,82.60
2023-04-23T21:16:38.745Z,82.50
2023-04-23T21:19:06.108Z,82.80
2023-04-23T21:21:32.931Z,82.90
2023-04-23T21:24:00.979Z,82.90
2023-04-23T21:26:29.969Z,82.90
2023-04-23T21:28:56.913Z,83.10
2023-04-23T21:31:42.460Z,83.00
2023-04-23T21:34:09.628Z,82.90
2023-04-23T21:36:36.513Z,83.00
2023-04-23T21:39:03.290Z,83.10
2023-04-23T21:41:30.127Z,83.00
2023-04-23T21:43:57.312Z,83.10
2023-04-23T21:46:25.071Z,83.20
2023-04-23T21:48:53.504Z,83.20
2023-04-23T21:51:21.903Z,83.10
2023-04-23T21:53:49.034Z,83.10
2023-04-23T21:56:16.354Z,81.90
2023-04-23T21:58:44.147Z,81.10
2023-04-23T22:01:10.946Z,80.80
2023-04-23T22:03:42.418Z,80.30
2023-04-23T22:06:09.772Z,80.50
2023-04-23T22:08:38.147Z,80.80
2023-04-23T22:11:08.465Z,81.20
2023-04-23T22:13:36.192Z,81.20
2023-04-23T22:16:06.582Z,81.10
2023-04-23T22:18:38.344Z,80.60
2023-04-23T22:21:05.104Z,81.00
2023-04-23T22:23:32.072Z,80.40
2023-04-23T22:25:59.013Z,80.70
2023-04-23T22:28:25.775Z,80.60
2023-04-23T22:30:52.581Z,81.20
2023-04-23T22:33:19.351Z,81.30
2023-04-23T22:35:46.173Z,80.10
2023-04-23T22:38:12.870Z,80.80
2023-04-23T22:40:39.648Z,80.50
2023-04-23T22:43:06.483Z,80.60
2023-04-23T22:45:33.305Z,80.30
2023-04-23T22:48:00.103Z,79.90
2023-04-23T22:50:26.990Z,79.70
2023-04-23T22:52:53.806Z,79.80
2023-04-23T22:55:20.484Z,80.10
2023-04-23T22:57:47.199Z,79.70
2023-04-23T23:00:14.680Z,80.00
2023-04-23T23:02:41.630Z,79.80
2023-04-23T23:05:09.577Z,80.40
2023-04-23T23:07:36.363Z,79.80
2023-04-23T23:10:03.728Z,79.50
2023-04-23T23:12:30.598Z,80.00
2023-04-23T23:14:57.271Z,79.60
2023-04-23T23:17:23.994Z,79.50
2023-04-23T23:19:50.733Z,80.30
2023-04-23T23:22:17.544Z,79.60
2023-04-23T23:24:44.334Z,79.60
2023-04-23T23:27:11.052Z,79.80
2023-04-23T23:29:37.804Z,79.50
2023-04-23T23:32:04.543Z,79.40
2023-04-23T23:34:31.326Z,79.60
2023-04-23T23:36:58.075Z,79.30
2023-04-23T23:39:24.801Z,79.40
2023-04-23T23:41:51.486Z,79.20
2023-04-23T23:44:18.263Z,79.50
2023-04-23T23:46:45.112Z,79.30
2023-04-23T23:49:12.263Z,79.40
2023-04-23T23:51:38.981Z,79.30
2023-04-23T23:54:06.220Z,79.20
2023-04-23T23:56:33.112Z,80.00
2023-04-23T23:58:59.786Z,79.40
